Metar z pełnej godziny Komunikat METAR ze strony awiacja.imgw.pl Metar G00 EPKK METAR EPKK 211800Z 04005KT CAVOK 26/18 Q1013 =